Time;durP1;ratioP1;P1;durP2;ratioP2;P2;SDS_P1;SDS_P2;PMS_P1;PMS_P2;Temp;Humidity;BMP_temperature;BMP_pressure;BME280_temperature;BME280_humidity;BME280_pressure;Samples;Min_cycle;Max_cycle;Signal;HPM_P1;HPM_P2
2023/07/19 00:00:42;;;;;;;;;;;;;;;27.37;50.17;99244.72;4480211;31;34104;-76
2023/07/19 00:03:11;;;;;;;;;;;;;;;27.31;49.44;99250.62;4486049;31;34810;-76
2023/07/19 00:05:41;;;;;;;;;;;;;;;27.29;48.83;99252.56;4479035;31;34128;-76
2023/07/19 00:08:14;;;;;;;;;;;;;;;27.20;48.83;99249.72;4496765;31;33367;-77
2023/07/19 00:10:43;;;;;;;;;;;;;;;26.85;49.77;99234.22;4490897;31;33173;-77
2023/07/19 00:13:14;;;;;;;;;;;;;;;26.87;49.90;99226.94;4479295;31;35490;-76
2023/07/19 00:15:43;;;;;;;;;;;;;;;26.71;50.82;99216.78;4488110;31;34425;-76
2023/07/19 00:18:14;;;;;;;;;;;;;;;26.59;51.25;99223.19;4491147;31;32998;-77
2023/07/19 00:20:44;;;;;;;;;;;;;;;26.52;52.01;99217.53;4500273;31;33917;-76
2023/07/19 00:23:13;;;;;;;;;;;;;;;26.67;51.32;99222.50;4491184;31;33776;-75
2023/07/19 00:25:42;;;;;;;;;;;;;;;26.58;51.54;99213.53;4483761;31;35241;-75
2023/07/19 00:28:18;;;;;;;;;;;;;;;26.59;52.08;99202.75;4484868;31;33031;-77
2023/07/19 00:30:48;;;;;;;;;;;;;;;26.62;51.43;99190.97;4498977;31;33182;-77
2023/07/19 00:33:19;;;;;;;;;;;;;;;26.62;51.55;99188.31;4481171;31;35257;-76
2023/07/19 00:35:48;;;;;;;;;;;;;;;26.54;51.73;99188.16;4477765;31;33819;-75
2023/07/19 00:38:21;;;;;;;;;;;;;;;26.64;51.00;99191.69;4483647;31;33298;-75
2023/07/19 00:40:54;;;;;;;;;;;;;;;26.39;51.81;99195.63;4482327;31;33999;-76
2023/07/19 00:43:26;;;;;;;;;;;;;;;26.50;51.69;99197.34;4496022;31;34161;-75
2023/07/19 00:45:56;;;;;;;;;;;;;;;26.55;50.79;99185.34;4479902;31;33471;-77
2023/07/19 00:48:25;;;;;;;;;;;;;;;26.18;51.78;99185.03;4487844;31;33742;-76
2023/07/19 00:50:55;;;;;;;;;;;;;;;26.50;50.91;99182.22;4493017;31;34673;-77
2023/07/19 00:53:26;;;;;;;;;;;;;;;26.49;50.73;99182.38;4490302;31;34304;-76
2023/07/19 00:55:57;;;;;;;;;;;;;;;26.44;50.89;99184.59;4493770;31;34173;-77
2023/07/19 00:58:27;;;;;;;;;;;;;;;26.34;50.64;99166.78;4497571;31;33882;-77
2023/07/19 01:00:59;;;;;;;;;;;;;;;26.42;50.77;99162.63;4484244;31;34963;-76
2023/07/19 01:03:28;;;;;;;;;;;;;;;26.18;51.59;99166.44;4480095;31;32429;-77
2023/07/19 01:06:00;;;;;;;;;;;;;;;26.28;51.49;99161.97;4483293;31;34946;-76
2023/07/19 01:08:29;;;;;;;;;;;;;;;26.39;51.62;99161.91;4484873;31;33508;-76
2023/07/19 01:10:58;;;;;;;;;;;;;;;26.33;51.93;99169.56;4488481;31;34926;-76
2023/07/19 01:13:30;;;;;;;;;;;;;;;26.45;51.75;99172.97;4488557;31;34096;-77
2023/07/19 01:16:00;;;;;;;;;;;;;;;26.45;51.52;99181.78;4487668;31;34718;-77
2023/07/19 01:18:30;;;;;;;;;;;;;;;26.54;51.72;99185.50;4485741;31;33339;-77
2023/07/19 01:21:00;;;;;;;;;;;;;;;26.55;51.34;99182.69;4480669;31;34978;-75
2023/07/19 01:23:37;;;;;;;;;;;;;;;26.51;51.88;99188.41;4486551;31;34234;-76
2023/07/19 01:26:08;;;;;;;;;;;;;;;26.65;51.31;99179.22;4485967;31;35173;-76
2023/07/19 01:28:37;;;;;;;;;;;;;;;26.51;51.37;99180.44;4499691;31;33310;-75
2023/07/19 01:31:06;;;;;;;;;;;;;;;26.54;51.15;99170.37;4488197;31;33973;-75
2023/07/19 01:33:38;;;;;;;;;;;;;;;26.46;51.50;99172.00;4478316;31;33911;-77
2023/07/19 01:36:10;;;;;;;;;;;;;;;26.24;51.79;99165.91;4481755;31;33892;-74
2023/07/19 01:38:42;;;;;;;;;;;;;;;26.22;52.01;99162.53;4495754;31;33469;-76
2023/07/19 01:41:20;;;;;;;;;;;;;;;26.22;51.04;99157.22;4487691;31;34757;-76
2023/07/19 01:43:50;;;;;;;;;;;;;;;26.25;51.77;99159.59;4494482;31;34733;-77
2023/07/19 01:46:21;;;;;;;;;;;;;;;26.23;51.58;99158.88;4485172;31;34329;-76
2023/07/19 01:48:50;;;;;;;;;;;;;;;26.17;51.58;99156.78;4483490;31;33313;-75
2023/07/19 01:51:22;;;;;;;;;;;;;;;26.31;50.89;99150.25;4478422;31;33863;-75
2023/07/19 01:53:58;;;;;;;;;;;;;;;26.29;51.35;99161.03;4485251;31;33675;-75
2023/07/19 01:56:26;;;;;;;;;;;;;;;26.24;51.60;99160.59;4491138;31;35376;-76
2023/07/19 01:58:59;;;;;;;;;;;;;;;25.92;51.86;99152.72;4497956;31;33122;-76
2023/07/19 02:01:27;;;;;;;;;;;;;;;25.99;51.57;99150.38;4489491;31;33981;-77
2023/07/19 02:03:59;;;;;;;;;;;;;;;25.98;52.14;99159.34;4484018;32;33966;-77
2023/07/19 02:06:28;;;;;;;;;;;;;;;25.81;51.83;99158.91;4477854;31;35198;-76
2023/07/19 02:09:01;;;;;;;;;;;;;;;25.71;52.66;99158.88;4480404;31;33345;-77
2023/07/19 02:11:30;;;;;;;;;;;;;;;25.66;53.08;99168.16;4478039;31;33932;-77
2023/07/19 02:13:59;;;;;;;;;;;;;;;25.73;53.07;99164.91;4478636;31;34372;-78
2023/07/19 02:16:30;;;;;;;;;;;;;;;25.76;51.82;99169.94;4482988;31;34841;-77
2023/07/19 02:19:02;;;;;;;;;;;;;;;25.55;53.20;99169.09;4480340;31;34090;-78
2023/07/19 02:21:31;;;;;;;;;;;;;;;25.59;52.88;99174.97;4479180;32;34266;-77
2023/07/19 02:24:07;;;;;;;;;;;;;;;25.72;53.11;99180.94;4486779;31;33895;-76
2023/07/19 02:26:36;;;;;;;;;;;;;;;25.72;52.51;99186.25;4489883;31;34641;-77
2023/07/19 02:29:11;;;;;;;;;;;;;;;25.67;53.18;99202.59;4472907;31;33366;-76
2023/07/19 02:31:46;;;;;;;;;;;;;;;25.79;52.73;99197.22;4482216;31;33874;-77
2023/07/19 02:34:18;;;;;;;;;;;;;;;25.81;51.93;99196.13;4477932;31;34864;-75
2023/07/19 02:36:49;;;;;;;;;;;;;;;25.84;51.94;99187.03;4479805;32;34943;-76
2023/07/19 02:39:21;;;;;;;;;;;;;;;25.89;50.90;99196.34;4483697;31;33208;-75
2023/07/19 02:41:52;;;;;;;;;;;;;;;25.87;51.10;99187.66;4480722;31;33184;-75
2023/07/19 02:44:22;;;;;;;;;;;;;;;25.68;52.01;99182.16;4480191;31;33938;-76
2023/07/19 02:46:52;;;;;;;;;;;;;;;25.47;53.69;99183.00;4490902;31;33628;-76
2023/07/19 02:49:20;;;;;;;;;;;;;;;25.52;53.23;99178.16;4487800;31;34289;-75
2023/07/19 02:51:49;;;;;;;;;;;;;;;25.53;53.43;99179.00;4483683;32;33969;-77
2023/07/19 02:54:22;;;;;;;;;;;;;;;25.59;52.40;99183.81;4479773;31;33954;-76
2023/07/19 02:56:51;;;;;;;;;;;;;;;25.57;52.86;99187.56;4493923;31;34401;-76
2023/07/19 02:59:23;;;;;;;;;;;;;;;25.36;53.41;99191.00;4489542;31;33308;-76
2023/07/19 03:01:57;;;;;;;;;;;;;;;25.53;53.48;99181.66;4494242;31;33618;-77
2023/07/19 03:04:26;;;;;;;;;;;;;;;25.40;53.96;99162.41;4491603;31;34522;-77
2023/07/19 03:06:58;;;;;;;;;;;;;;;25.49;53.47;99162.47;4489421;31;35670;-77
2023/07/19 03:09:29;;;;;;;;;;;;;;;25.62;52.51;99172.91;4480853;31;33390;-78
2023/07/19 03:11:58;;;;;;;;;;;;;;;25.56;52.70;99170.75;4481404;31;35585;-77
2023/07/19 03:14:27;;;;;;;;;;;;;;;25.26;53.87;99168.84;4483661;31;33809;-77
2023/07/19 03:16:59;;;;;;;;;;;;;;;25.48;52.74;99176.72;4481883;31;34051;-77
2023/07/19 03:19:28;;;;;;;;;;;;;;;25.32;53.95;99185.13;4489132;31;33605;-76
2023/07/19 03:21:58;;;;;;;;;;;;;;;25.30;53.60;99176.44;4493878;31;34920;-77
2023/07/19 03:24:32;;;;;;;;;;;;;;;25.30;53.96;99172.94;4491313;31;34344;-76
2023/07/19 03:27:01;;;;;;;;;;;;;;;25.28;53.56;99170.41;4483096;31;34619;-76
2023/07/19 03:29:36;;;;;;;;;;;;;;;25.23;53.93;99175.25;4487562;31;33631;-77
2023/07/19 03:32:07;;;;;;;;;;;;;;;25.20;54.36;99169.34;4482994;31;34045;-76
2023/07/19 03:34:36;;;;;;;;;;;;;;;25.21;54.93;99168.38;4486605;31;33712;-77
2023/07/19 03:37:06;;;;;;;;;;;;;;;25.15;55.23;99171.50;4496796;31;34468;-76
2023/07/19 03:39:36;;;;;;;;;;;;;;;25.25;54.97;99164.50;4483728;31;34073;-76
2023/07/19 03:42:09;;;;;;;;;;;;;;;25.08;54.83;99166.72;4451928;31;1105540;-75
2023/07/19 03:44:37;;;;;;;;;;;;;;;25.35;54.95;99162.78;4481587;31;33938;-75
2023/07/19 03:47:08;;;;;;;;;;;;;;;25.36;53.76;99159.16;4482372;31;33540;-78
2023/07/19 03:49:38;;;;;;;;;;;;;;;25.44;54.07;99162.03;4483116;31;31005;-77
2023/07/19 03:52:13;;;;;;;;;;;;;;;25.56;54.21;99170.75;4483660;31;33900;-75
2023/07/19 03:54:43;;;;;;;;;;;;;;;25.58;52.97;99167.97;4480208;31;34286;-75
2023/07/19 03:57:13;;;;;;;;;;;;;;;25.46;54.30;99162.72;4478271;32;34677;-77
2023/07/19 03:59:41;;;;;;;;;;;;;;;25.48;54.00;99166.09;4482172;31;33211;-77
2023/07/19 04:02:13;;;;;;;;;;;;;;;25.25;54.55;99164.50;4485016;31;34822;-75
2023/07/19 04:04:42;;;;;;;;;;;;;;;25.44;53.80;99174.44;4480880;31;34111;-78
2023/07/19 04:07:15;;;;;;;;;;;;;;;25.30;53.94;99184.41;4479655;31;34590;-75
2023/07/19 04:09:45;;;;;;;;;;;;;;;25.25;54.57;99177.75;4480415;31;33081;-75
2023/07/19 04:12:15;;;;;;;;;;;;;;;25.49;52.85;99180.19;4482596;31;35487;-76
2023/07/19 04:14:44;;;;;;;;;;;;;;;25.37;53.60;99179.44;4481245;31;34139;-75
2023/07/19 04:17:17;;;;;;;;;;;;;;;25.47;52.81;99183.00;4477913;31;34187;-76
2023/07/19 04:19:46;;;;;;;;;;;;;;;25.21;53.73;99179.84;4489830;31;33286;-78
2023/07/19 04:22:20;;;;;;;;;;;;;;;25.36;54.00;99185.69;4493541;31;34287;-76
2023/07/19 04:24:50;;;;;;;;;;;;;;;25.47;54.23;99196.28;4492961;31;34707;-76
2023/07/19 04:27:20;;;;;;;;;;;;;;;25.56;53.24;99184.03;4493524;31;33133;-77
2023/07/19 04:29:49;;;;;;;;;;;;;;;25.41;54.22;99187.97;4486479;31;33411;-77
2023/07/19 04:32:21;;;;;;;;;;;;;;;25.66;53.77;99192.06;4476809;31;34865;-77
2023/07/19 04:34:53;;;;;;;;;;;;;;;25.88;52.36;99196.50;4495369;31;35014;-76
2023/07/19 04:37:24;;;;;;;;;;;;;;;25.73;53.41;99207.41;4492321;31;33439;-76
2023/07/19 04:39:54;;;;;;;;;;;;;;;25.86;53.50;99204.56;4485990;31;33250;-76
2023/07/19 04:42:27;;;;;;;;;;;;;;;26.04;53.20;99207.47;4484062;31;33470;-75
2023/07/19 04:44:56;;;;;;;;;;;;;;;26.10;53.18;99206.13;4491356;31;33924;-76
2023/07/19 04:47:25;;;;;;;;;;;;;;;26.29;52.84;99205.38;4496826;31;34730;-76
2023/07/19 04:49:54;;;;;;;;;;;;;;;26.65;50.56;99201.37;4486893;31;33472;-77
2023/07/19 04:52:23;;;;;;;;;;;;;;;26.76;50.89;99200.41;4489630;31;34235;-76
2023/07/19 04:54:57;;;;;;;;;;;;;;;26.98;49.10;99197.53;4486944;31;33868;-76
2023/07/19 04:57:28;;;;;;;;;;;;;;;27.12;49.45;99201.63;4494890;31;35219;-76
2023/07/19 04:59:57;;;;;;;;;;;;;;;27.18;49.38;99201.09;4485980;31;33746;-78
2023/07/19 05:02:26;;;;;;;;;;;;;;;27.54;48.97;99204.06;4476500;31;34786;-77
2023/07/19 05:04:59;;;;;;;;;;;;;;;27.77;48.35;99209.09;4488726;31;34486;-78
2023/07/19 05:07:34;;;;;;;;;;;;;;;27.98;46.59;99200.94;4493285;31;34258;-78
2023/07/19 05:10:06;;;;;;;;;;;;;;;27.96;46.04;99201.13;4484370;31;33227;-76
2023/07/19 05:12:43;;;;;;;;;;;;;;;27.93;46.75;99198.72;4484219;31;34200;-76
2023/07/19 05:15:13;;;;;;;;;;;;;;;27.78;47.45;99195.63;4491601;31;34427;-78
2023/07/19 05:17:44;;;;;;;;;;;;;;;27.79;48.02;99202.66;4494051;31;34264;-77
2023/07/19 05:20:26;;;;;;;;;;;;;;;28.02;46.82;99202.34;4487930;31;34136;-77
2023/07/19 05:22:55;;;;;;;;;;;;;;;28.03;47.58;99194.22;4496783;31;33900;-78
2023/07/19 05:25:31;;;;;;;;;;;;;;;28.32;46.42;99182.62;4480783;31;34956;-76
2023/07/19 05:28:01;;;;;;;;;;;;;;;28.20;47.16;99189.97;4490372;31;35445;-77
2023/07/19 05:30:31;;;;;;;;;;;;;;;28.28;46.75;99187.41;4480298;31;33166;-76
2023/07/19 05:33:00;;;;;;;;;;;;;;;28.29;46.92;99199.78;4484345;31;33626;-77
2023/07/19 05:35:31;;;;;;;;;;;;;;;28.40;46.13;99196.06;4479108;31;33862;-77
2023/07/19 05:38:00;;;;;;;;;;;;;;;28.41;46.53;99196.91;4487715;31;34158;-76
2023/07/19 05:40:32;;;;;;;;;;;;;;;28.55;46.42;99198.28;4486699;31;33471;-76
2023/07/19 05:43:04;;;;;;;;;;;;;;;28.40;46.05;99200.56;4476346;31;34220;-78
2023/07/19 05:45:32;;;;;;;;;;;;;;;28.04;46.32;99198.56;4486840;31;34586;-75
2023/07/19 05:48:02;;;;;;;;;;;;;;;27.87;46.89;99208.13;4479238;32;33834;-75
2023/07/19 05:50:33;;;;;;;;;;;;;;;27.22;48.35;99221.16;4490302;31;33761;-76
2023/07/19 05:53:02;;;;;;;;;;;;;;;27.30;48.97;99216.94;4494629;31;33772;-78
2023/07/19 05:55:36;;;;;;;;;;;;;;;27.38;49.31;99222.44;4494078;31;34298;-77
2023/07/19 05:58:09;;;;;;;;;;;;;;;27.33;49.22;99217.53;4495775;31;33364;-77
2023/07/19 06:00:40;;;;;;;;;;;;;;;27.44;48.63;99225.38;4494984;31;33139;-77
2023/07/19 06:03:09;;;;;;;;;;;;;;;27.20;49.37;99225.75;4480315;31;33583;-76
2023/07/19 06:05:39;;;;;;;;;;;;;;;27.26;49.84;99229.72;4478049;31;33819;-76
2023/07/19 06:08:09;;;;;;;;;;;;;;;27.37;50.17;99228.72;4486438;31;33521;-78
2023/07/19 06:10:56;;;;;;;;;;;;;;;27.79;48.24;99223.16;4483583;31;32979;-78
2023/07/19 06:13:25;;;;;;;;;;;;;;;27.78;48.85;99226.78;4477649;31;34903;-76
2023/07/19 06:15:56;;;;;;;;;;;;;;;27.87;48.84;99220.62;4479283;31;34430;-78
2023/07/19 06:18:25;;;;;;;;;;;;;;;28.06;48.85;99230.44;4490344;31;32784;-78
2023/07/19 06:20:58;;;;;;;;;;;;;;;28.07;48.50;99229.44;4487024;31;33037;-77
2023/07/19 06:23:31;;;;;;;;;;;;;;;28.28;49.06;99231.91;4483110;31;34067;-77
2023/07/19 06:26:04;;;;;;;;;;;;;;;28.50;47.64;99215.56;4484714;31;34070;-76
2023/07/19 06:28:37;;;;;;;;;;;;;;;28.25;48.09;99229.53;4488984;31;35688;-76
2023/07/19 06:31:08;;;;;;;;;;;;;;;28.36;48.39;99223.19;4480510;31;33018;-77
2023/07/19 06:33:41;;;;;;;;;;;;;;;28.53;48.40;99222.44;4486968;31;34980;-76
2023/07/19 06:36:09;;;;;;;;;;;;;;;28.61;48.20;99211.03;4485808;31;34742;-75
2023/07/19 06:38:47;;;;;;;;;;;;;;;28.65;47.87;99218.59;4484546;31;35196;-76
2023/07/19 06:41:16;;;;;;;;;;;;;;;28.84;46.86;99215.00;4486177;31;34326;-76
2023/07/19 06:43:53;;;;;;;;;;;;;;;28.86;46.51;99209.50;4490333;31;34163;-76
2023/07/19 06:46:23;;;;;;;;;;;;;;;29.14;45.88;99200.53;4489105;31;34962;-77
2023/07/19 06:48:56;;;;;;;;;;;;;;;28.90;46.72;99200.22;4492398;31;34095;-77
2023/07/19 06:51:29;;;;;;;;;;;;;;;29.03;46.76;99199.84;4484255;31;33141;-77
2023/07/19 06:53:58;;;;;;;;;;;;;;;29.24;46.15;99205.78;4481933;31;33949;-77
2023/07/19 06:56:43;;;;;;;;;;;;;;;29.29;46.14;99211.53;4489697;31;34851;-77
2023/07/19 06:59:14;;;;;;;;;;;;;;;29.18;46.22;99206.38;4496338;31;35210;-77
2023/07/19 07:01:42;;;;;;;;;;;;;;;29.15;46.60;99201.34;4490268;31;33617;-77
2023/07/19 07:04:13;;;;;;;;;;;;;;;29.20;46.18;99184.87;4491194;31;34153;-78
2023/07/19 07:06:42;;;;;;;;;;;;;;;29.33;46.13;99188.84;4481730;31;33921;-76
2023/07/19 07:09:14;;;;;;;;;;;;;;;29.48;45.51;99186.47;4476993;31;33582;-76
2023/07/19 07:11:44;;;;;;;;;;;;;;;29.42;46.15;99186.25;4486056;31;33647;-79
2023/07/19 07:14:16;;;;;;;;;;;;;;;29.49;45.50;99185.47;4482019;31;33218;-78
2023/07/19 07:16:45;;;;;;;;;;;;;;;29.35;45.87;99183.34;4484338;31;34136;-77
2023/07/19 07:19:18;;;;;;;;;;;;;;;29.51;44.97;99179.97;4492012;31;34444;-78
2023/07/19 07:21:47;;;;;;;;;;;;;;;29.60;45.57;99179.06;4491738;31;33232;-78
2023/07/19 07:24:19;;;;;;;;;;;;;;;29.74;44.87;99191.91;4484238;31;34635;-76
2023/07/19 07:26:50;;;;;;;;;;;;;;;29.94;45.19;99197.91;4481078;31;33952;-77
2023/07/19 07:29:21;;;;;;;;;;;;;;;29.84;45.26;99199.84;4489607;31;34452;-76
2023/07/19 07:31:50;;;;;;;;;;;;;;;30.05;44.83;99194.09;4492479;31;33039;-76
2023/07/19 07:34:22;;;;;;;;;;;;;;;30.14;44.41;99203.03;4484987;31;33786;-78
2023/07/19 07:36:52;;;;;;;;;;;;;;;30.24;44.12;99198.41;4483996;31;33749;-78
2023/07/19 07:39:21;;;;;;;;;;;;;;;30.20;45.06;99203.25;4483409;31;32140;-79
2023/07/19 07:41:52;;;;;;;;;;;;;;;30.35;43.40;99194.69;4478601;31;33421;-76
2023/07/19 07:44:24;;;;;;;;;;;;;;;30.30;43.69;99199.63;4483000;31;33311;-77
2023/07/19 07:46:53;;;;;;;;;;;;;;;30.09;43.71;99203.50;4477446;31;34553;-76
2023/07/19 07:49:23;;;;;;;;;;;;;;;29.93;44.22;99211.41;4485210;31;34634;-78
2023/07/19 07:51:52;;;;;;;;;;;;;;;30.03;43.39;99197.94;4478154;32;34645;-77
2023/07/19 07:54:22;;;;;;;;;;;;;;;30.12;43.94;99203.19;4491892;31;34841;-76
2023/07/19 07:56:55;;;;;;;;;;;;;;;30.07;43.43;99207.34;4479495;31;33609;-76
2023/07/19 07:59:28;;;;;;;;;;;;;;;30.05;43.19;99214.69;4481473;31;35015;-76
2023/07/19 08:01:56;;;;;;;;;;;;;;;29.78;43.45;99211.13;4481838;31;33158;-77
2023/07/19 08:07:00;;;;;;;;;;;;;;;29.51;44.33;99196.84;4487458;31;35606;-76
2023/07/19 08:09:30;;;;;;;;;;;;;;;29.09;45.77;99194.78;4484472;31;33822;-77
2023/07/19 08:12:01;;;;;;;;;;;;;;;29.19;45.89;99186.72;4491592;31;33771;-76
2023/07/19 08:14:34;;;;;;;;;;;;;;;29.29;45.60;99190.12;4478747;31;33371;-78
2023/07/19 08:17:02;;;;;;;;;;;;;;;29.17;45.82;99183.34;4486114;31;32477;-76
2023/07/19 08:19:34;;;;;;;;;;;;;;;29.23;46.36;99185.41;4485785;31;34381;-78
2023/07/19 08:22:06;;;;;;;;;;;;;;;29.26;46.61;99181.56;4484712;31;33249;-78
2023/07/19 08:24:36;;;;;;;;;;;;;;;29.36;46.98;99182.38;4487051;31;33669;-77
2023/07/19 08:27:07;;;;;;;;;;;;;;;29.42;44.43;99181.72;4483015;31;37608;-78
2023/07/19 08:29:36;;;;;;;;;;;;;;;29.26;44.87;99171.75;4494367;31;34104;-76
2023/07/19 08:32:05;;;;;;;;;;;;;;;28.91;45.75;99178.69;4484557;31;33514;-76
2023/07/19 08:34:33;;;;;;;;;;;;;;;29.20;45.52;99187.53;4477470;31;34777;-76
2023/07/19 08:37:08;;;;;;;;;;;;;;;29.12;46.11;99175.78;4479594;31;33659;-75
2023/07/19 08:39:40;;;;;;;;;;;;;;;29.01;45.29;99178.63;4487613;31;35156;-76
2023/07/19 08:42:10;;;;;;;;;;;;;;;29.02;45.50;99190.16;4485438;31;34087;-76
2023/07/19 08:44:39;;;;;;;;;;;;;;;29.14;45.66;99191.66;4484252;31;33959;-77
2023/07/19 08:47:08;;;;;;;;;;;;;;;29.42;45.41;99194.25;4482764;31;34895;-76
2023/07/19 08:49:38;;;;;;;;;;;;;;;29.48;44.25;99204.31;4484087;31;33740;-76
2023/07/19 08:52:09;;;;;;;;;;;;;;;29.61;44.63;99199.44;4498928;31;33268;-77
2023/07/19 08:54:39;;;;;;;;;;;;;;;29.82;43.73;99200.97;4484201;31;33999;-77
2023/07/19 08:57:14;;;;;;;;;;;;;;;30.22;43.17;99199.56;4485753;31;33892;-79
2023/07/19 08:59:46;;;;;;;;;;;;;;;30.36;43.17;99207.87;4484432;31;36916;-76
2023/07/19 09:02:15;;;;;;;;;;;;;;;30.07;43.14;99210.00;4486104;31;33590;-76
2023/07/19 09:04:59;;;;;;;;;;;;;;;30.47;43.04;99206.78;4486912;31;34948;-77
2023/07/19 09:07:29;;;;;;;;;;;;;;;30.57;42.82;99203.97;4468989;32;32276;-77
2023/07/19 09:09:58;;;;;;;;;;;;;;;30.83;42.03;99198.56;4478670;32;33905;-78
2023/07/19 09:12:32;;;;;;;;;;;;;;;31.11;41.20;99204.50;4477545;32;34321;-77
2023/07/19 09:15:01;;;;;;;;;;;;;;;30.82;41.75;99194.19;4482760;32;33776;-77
2023/07/19 09:17:30;;;;;;;;;;;;;;;30.44;43.06;99190.19;4474817;32;34727;-76
2023/07/19 09:20:04;;;;;;;;;;;;;;;30.59;43.35;99196.59;4471761;32;33461;-76
2023/07/19 09:22:34;;;;;;;;;;;;;;;30.44;42.65;99188.34;4468649;32;31774;-76
2023/07/19 09:25:05;;;;;;;;;;;;;;;30.41;43.82;99191.34;4469609;32;33290;-76
2023/07/19 09:27:36;;;;;;;;;;;;;;;30.88;41.67;99198.06;4476845;32;33816;-77
2023/07/19 09:30:08;;;;;;;;;;;;;;;31.11;42.36;99195.63;4474325;32;34237;-77
2023/07/19 09:32:38;;;;;;;;;;;;;;;31.20;40.30;99200.84;4469657;32;33446;-77
2023/07/19 09:35:08;;;;;;;;;;;;;;;31.31;41.37;99201.53;4471841;32;33703;-76
2023/07/19 09:37:39;;;;;;;;;;;;;;;31.36;40.43;99199.19;4474505;32;33729;-79
2023/07/19 09:40:09;;;;;;;;;;;;;;;31.48;39.71;99194.38;4476415;32;35008;-79
2023/07/19 09:42:42;;;;;;;;;;;;;;;31.74;39.72;99188.84;4473146;32;34010;-76
2023/07/19 09:45:12;;;;;;;;;;;;;;;31.96;38.21;99192.72;4476548;32;34846;-77
2023/07/19 09:47:41;;;;;;;;;;;;;;;31.64;38.18;99197.91;4476119;32;34538;-76
2023/07/19 09:50:12;;;;;;;;;;;;;;;31.45;39.00;99193.69;4476217;32;34351;-76
2023/07/19 09:52:42;;;;;;;;;;;;;;;31.55;37.79;99195.38;4476050;32;33141;-78
2023/07/19 09:55:10;;;;;;;;;;;;;;;31.55;38.50;99204.25;4469681;32;33587;-76
2023/07/19 09:57:46;;;;;;;;;;;;;;;31.44;39.14;99201.94;4472951;32;33528;-77
2023/07/19 10:00:16;;;;;;;;;;;;;;;31.19;38.46;99192.97;4477086;32;34989;-77
2023/07/19 10:02:46;;;;;;;;;;;;;;;31.21;39.30;99185.59;4477545;32;34217;-78
2023/07/19 10:05:15;;;;;;;;;;;;;;;31.43;39.59;99184.16;4469416;32;34014;-76
2023/07/19 10:07:50;;;;;;;;;;;;;;;31.44;38.18;99188.53;4473764;32;34549;-77
2023/07/19 10:10:20;;;;;;;;;;;;;;;31.73;39.37;99179.97;4470872;32;34240;-77
2023/07/19 10:13:00;;;;;;;;;;;;;;;31.77;40.47;99181.28;4473985;32;33145;-77
2023/07/19 10:15:33;;;;;;;;;;;;;;;31.79;37.01;99173.91;4470689;32;31908;-77
2023/07/19 10:18:02;;;;;;;;;;;;;;;31.56;38.61;99179.13;4464938;32;33735;-76
2023/07/19 10:20:40;;;;;;;;;;;;;;;31.95;37.56;99169.59;4473695;32;34861;-77
2023/07/19 10:23:08;;;;;;;;;;;;;;;31.85;37.48;99173.25;4468788;32;32905;-78
2023/07/19 10:25:46;;;;;;;;;;;;;;;31.65;37.28;99156.69;4469265;32;35907;-77
2023/07/19 10:28:30;;;;;;;;;;;;;;;31.75;37.68;99155.66;4473203;32;34057;-78
2023/07/19 10:31:03;;;;;;;;;;;;;;;31.85;36.57;99153.66;4477069;32;33919;-76
2023/07/19 10:33:54;;;;;;;;;;;;;;;31.79;36.63;99157.00;4467391;32;33506;-78
2023/07/19 10:36:30;;;;;;;;;;;;;;;31.93;36.88;99153.63;4473592;32;33130;-76
2023/07/19 10:39:04;;;;;;;;;;;;;;;31.98;35.51;99156.66;4475307;32;33950;-77
2023/07/19 10:41:33;;;;;;;;;;;;;;;32.02;34.89;99133.00;4476241;32;34057;-77
2023/07/19 10:44:04;;;;;;;;;;;;;;;32.18;36.03;99124.87;4469840;32;33708;-77
2023/07/19 10:46:34;;;;;;;;;;;;;;;32.42;34.29;99123.13;4470924;32;32993;-77
2023/07/19 10:49:07;;;;;;;;;;;;;;;32.40;34.40;99109.03;4473618;31;34859;-77
2023/07/19 10:51:37;;;;;;;;;;;;;;;32.39;34.74;99110.91;4469459;32;34051;-77
2023/07/19 10:54:08;;;;;;;;;;;;;;;32.58;33.71;99101.59;4476398;32;34236;-77
2023/07/19 10:56:38;;;;;;;;;;;;;;;32.61;35.38;99108.47;4472899;32;35067;-76
2023/07/19 10:59:10;;;;;;;;;;;;;;;32.88;32.74;99112.50;4467939;32;34788;-77
2023/07/19 11:01:40;;;;;;;;;;;;;;;33.06;33.55;99118.47;4471178;32;34322;-77
2023/07/19 11:04:11;;;;;;;;;;;;;;;33.29;33.26;99128.34;4477236;32;33629;-76
2023/07/19 11:06:54;;;;;;;;;;;;;;;33.63;32.45;99129.78;4475486;31;34165;-77
2023/07/19 11:09:23;;;;;;;;;;;;;;;33.61;32.24;99129.97;4480089;31;33986;-77
2023/07/19 11:11:54;;;;;;;;;;;;;;;33.54;32.71;99129.00;4480586;31;34170;-78
2023/07/19 11:14:41;;;;;;;;;;;;;;;33.39;31.47;99134.31;4484498;31;34123;-78
2023/07/19 11:17:11;;;;;;;;;;;;;;;33.40;30.61;99129.81;4479985;31;33974;-78
2023/07/19 11:19:48;;;;;;;;;;;;;;;33.51;32.10;99121.28;4484341;31;34619;-76
2023/07/19 11:22:21;;;;;;;;;;;;;;;33.77;30.88;99112.81;4487921;31;34238;-77
2023/07/19 11:24:51;;;;;;;;;;;;;;;33.80;30.53;99117.81;4483686;31;33101;-77
2023/07/19 11:27:31;;;;;;;;;;;;;;;34.32;30.11;99114.25;4480424;31;34757;-79
2023/07/19 11:30:09;;;;;;;;;;;;;;;34.46;29.90;99117.09;4469677;31;33040;-77
2023/07/19 11:32:37;;;;;;;;;;;;;;;34.09;30.59;99108.97;4489368;31;34593;-77
2023/07/19 11:35:09;;;;;;;;;;;;;;;34.29;30.04;99111.94;4467030;31;33494;-77
2023/07/19 11:37:40;;;;;;;;;;;;;;;34.42;30.00;99111.25;4478038;31;34554;-77
2023/07/19 11:40:16;;;;;;;;;;;;;;;34.53;28.20;99105.41;4487079;31;35128;-78
2023/07/19 11:42:46;;;;;;;;;;;;;;;34.78;29.15;99100.53;4489857;31;34777;-77
2023/07/19 11:45:18;;;;;;;;;;;;;;;34.47;28.79;99102.63;4490249;31;33589;-77
2023/07/19 11:47:51;;;;;;;;;;;;;;;34.49;28.87;99104.09;4481694;31;34155;-79
2023/07/19 11:50:23;;;;;;;;;;;;;;;34.72;28.89;99105.84;4484088;31;33324;-79
2023/07/19 11:52:54;;;;;;;;;;;;;;;34.57;29.76;99106.66;4487675;31;34686;-78
2023/07/19 11:55:23;;;;;;;;;;;;;;;34.58;28.75;99102.13;4487709;31;33349;-77
2023/07/19 11:57:54;;;;;;;;;;;;;;;34.84;29.98;99115.94;4484960;31;34247;-77
2023/07/19 12:00:24;;;;;;;;;;;;;;;34.60;28.66;99105.50;4482468;31;33366;-79
2023/07/19 12:02:56;;;;;;;;;;;;;;;34.66;28.00;99101.22;4481445;31;33906;-78
2023/07/19 12:05:26;;;;;;;;;;;;;;;34.51;29.16;99098.53;4490834;31;33102;-78
2023/07/19 12:07:57;;;;;;;;;;;;;;;34.31;29.50;99092.88;4489663;31;31450;-77
2023/07/19 12:10:27;;;;;;;;;;;;;;;34.06;29.41;99090.47;4489177;31;34682;-77
2023/07/19 12:12:57;;;;;;;;;;;;;;;34.04;30.11;99080.91;4467283;31;32519;-76
2023/07/19 12:15:28;;;;;;;;;;;;;;;34.10;30.07;99072.97;4479869;31;33531;-78
2023/07/19 12:18:01;;;;;;;;;;;;;;;34.09;29.74;99073.13;4487252;31;34538;-76
2023/07/19 12:20:29;;;;;;;;;;;;;;;33.87;30.03;99058.75;4481059;31;34203;-77
2023/07/19 12:22:58;;;;;;;;;;;;;;;34.00;31.38;99067.84;4476848;31;34300;-77
2023/07/19 12:25:28;;;;;;;;;;;;;;;34.17;31.29;99057.72;4481709;31;33266;-78
2023/07/19 12:27:59;;;;;;;;;;;;;;;34.82;30.50;99050.63;4479060;31;34248;-77
2023/07/19 12:30:31;;;;;;;;;;;;;;;34.84;29.47;99042.31;4488066;31;33757;-77
2023/07/19 12:33:00;;;;;;;;;;;;;;;35.06;28.82;99040.44;4482019;31;33679;-78
2023/07/19 12:35:31;;;;;;;;;;;;;;;35.40;27.93;99020.00;4481045;31;34829;-76
2023/07/19 12:38:05;;;;;;;;;;;;;;;35.77;27.41;99015.28;4485852;31;32160;-78
2023/07/19 12:40:37;;;;;;;;;;;;;;;35.97;27.55;99021.59;4489287;31;33799;-76
2023/07/19 12:43:07;;;;;;;;;;;;;;;36.01;25.27;99012.06;4478277;31;34491;-78
2023/07/19 12:45:40;;;;;;;;;;;;;;;35.80;26.08;99014.88;4481767;31;32985;-76
2023/07/19 12:48:11;;;;;;;;;;;;;;;35.95;26.69;99018.25;4482035;31;33929;-77
2023/07/19 12:50:40;;;;;;;;;;;;;;;35.98;25.77;99017.87;4479594;31;34935;-79
2023/07/19 12:53:09;;;;;;;;;;;;;;;36.33;26.32;99008.88;4486057;31;34507;-77
2023/07/19 12:55:37;;;;;;;;;;;;;;;36.70;26.04;98999.41;4480450;31;33916;-79
2023/07/19 12:58:12;;;;;;;;;;;;;;;36.67;24.78;99003.37;4479465;31;34742;-76
2023/07/19 13:00:42;;;;;;;;;;;;;;;36.84;23.96;99005.69;4485414;31;34969;-79
2023/07/19 13:03:14;;;;;;;;;;;;;;;36.87;24.07;98997.16;4488902;31;34073;-78
2023/07/19 13:05:45;;;;;;;;;;;;;;;37.05;23.54;98999.25;4483424;31;34727;-79
2023/07/19 13:08:14;;;;;;;;;;;;;;;36.71;23.27;98993.00;4476799;31;33720;-76
2023/07/19 13:10:43;;;;;;;;;;;;;;;36.35;23.79;98982.50;4483598;31;33677;-76